Clinton, MS (39056)

1:30 AM CST on December 22, 2014 (GMT -0600)
John Bell Williams, Raymond | Change Station
CLOSE
Current Station
Airport
Location: John Bell Williams, Raymond,
Elevation: 246 ft
Nearby Weather Stations

Elev 246 ft 32.30 °N, 90.41 °W | Updated 15 minutes ago

Overcast
Overcast
52 °F
Feels Like 52 °F
N
9
Wind Variable Wind from ESE

Today
High -- | Low -- °F
--% Chance of Precip.
Yesterday
High -- | Low -- °F
Precip. -- in
6:59 AM 5:00 PM
New Moon, 0% visible
Pressure 29.90 in
Visibility 7.0 miles
Clouds Overcast 600 ft
Dew Point 46 °F
Humidity 82%
Rainfall 0.00 in
Snow Depth Not available.
UV 0 out of 12
Pollen 2.20 out of 12
Air Quality Not available.
Flu Activity Not available.
METAR KJVW 220715Z AUTO 12008KT 7SM OVC006 11/08 A2990 RMK AO2

More Conditions Fewer Conditions

Pressure 29.90 in
Visibility 7.0 miles
Clouds Overcast 600 ft
Dew Point 46 °F
Humidity 82%
Rainfall 0.00 in
Snow Depth Not available.
UV 0 out of 12
Pollen 2.20 out of 12
Air Quality Not available.
Flu Activity Not available.
METAR KJVW 220715Z AUTO 12008KT 7SM OVC006 11/08 A2990 RMK AO2

More Conditions Fewer Conditions

10-Day Weather Forecast

Almanac

Astronomy

Dec. 22, 2014 Rise Set
Actual Time
Civil Twilight
Nautical Twilight
Astronomical Twilight
Moon
Length of Visible Light
Length of Day
Tomorrow will be .
, % of the Moon is Illuminated

Today's Extremes

State Highs State Lows

Community

WunderPhotos

Upload Photos

1,779,564 photos uploaded!

WunderBlogs® & News

Nearby

Air Quality

  Air Quality AQ Index Pollutant
Not available.

Snow Depth

Station Depth Elevation

Earthquake Activity

City Distance Mag. Time & Date
Minimum magnitude displayed is 2.5.

Coastal Water Temperatures

Place Temperature

Nearby Weather Stations